Latest Weather Observations for Wilsons Promontory

IDV60801

Issued at 11:31 pm EDT Friday 19 December 2014 (issued every 30 minutes, with the page automatically refreshed every 10 minutes)

About weather observations | Map of weather stations | Latest weather observations for VIC | Other Formats
Station Details ID: 085096 Name: WILSONS PROMONTORY LIGHTHOUSE Lat: -39.13 Lon: 146.42 Height: 95.0 m
Data from the previous 72 hours. | See also: Recent months at Wilsons Promontory
Date/Time
EDT
Temp
°C
App
Temp
°C
Dew
Point
Rel
Hum
%
Delta-T
°C
Wind Press
QNH
hPa
Press
MSL
hPa
Rain
since 9 am
mm
Dir
 
Spd
km/h
Gust
km/h
Spd
kts
Gust
kts
19/11:30pm 13.9 9.6 9.3 74 2.4 W 22 32 12 17 1017.8 - 0.0
19/11:25pm 13.9 9.2 9.3 74 2.4 W 24 32 13 17 1017.8 - 0.0
19/11:00pm 14.2 6.7 9.6 74 2.4 WSW 39 50 21 27 1017.7 - 0.0
19/10:56pm 14.2 8.0 9.4 73 2.5 WSW 32 50 17 27 1017.7 - 0.0
19/10:30pm 14.3 8.8 9.1 71 2.7 W 28 43 15 23 1017.9 - 0.0
19/10:00pm 14.0 11.1 9.6 75 2.3 W 15 39 8 21 1018.1 - 0.0
19/09:30pm 13.7 6.9 9.4 75 2.2 W 35 46 19 25 1017.9 - 0.0
19/09:00pm 13.9 7.1 9.3 74 2.4 W 35 46 19 25 1017.6 1017.5 0.0
19/08:37pm 14.1 8.2 9.1 72 2.6 W 30 54 16 29 1017.5 - 0.0
19/08:30pm 14.2 7.9 8.8 70 2.7 W 32 44 17 24 1017.5 - 0.0
19/08:00pm 14.2 9.0 9.0 71 2.7 W 26 39 14 21 1017.4 - 0.0
19/07:30pm 13.8 9.2 9.5 75 2.2 W 24 35 13 19 1017.4 - 0.0
19/07:00pm 14.6 8.7 9.0 69 2.9 W 30 43 16 23 1017.0 - 0.0
19/06:30pm 15.1 7.7 8.3 64 3.4 W 37 46 20 25 1016.6 - 0.0
19/06:00pm 15.4 8.7 8.2 62 3.6 W 33 46 18 25 1016.4 1016.3 0.0
19/05:30pm 15.8 9.3 8.3 61 3.8 W 32 46 17 25 1016.1 - 0.0
19/05:00pm 15.6 9.6 8.8 64 3.5 W 30 44 16 24 1016.0 - 0.0
19/04:30pm 15.0 8.2 7.5 61 3.7 W 33 50 18 27 1015.9 - 0.0
19/04:00pm 16.0 9.2 7.7 58 4.2 W 33 50 18 27 1015.9 - 0.0
19/03:30pm 15.2 8.0 7.5 60 3.8 W 35 48 19 26 1015.9 - 0.0
19/03:00pm 15.5 9.0 8.0 61 3.8 W 32 59 17 32 1015.8 1015.7 0.0
19/02:40pm 14.4 7.6 7.5 63 3.4 W 33 54 18 29 1015.5 - 0.0
19/02:30pm 14.6 7.6 8.5 67 3.1 W 35 46 19 25 1015.9 - 0.0
19/02:00pm 15.3 8.6 8.3 63 3.5 W 33 44 18 24 1015.8 - 0.0
19/01:35pm 14.2 6.1 8.8 70 2.7 WSW 41 59 22 32 1015.8 - 0.0
19/01:30pm 14.0 4.1 8.4 69 2.8 WSW 50 59 27 32 1015.5 - 0.0
19/01:23pm 14.1 8.0 8.1 67 3.0 W 30 59 16 32 1015.4 - 0.0
19/01:00pm 14.1 8.3 9.3 73 2.5 WSW 30 39 16 21 1016.0 - 0.0
19/12:55pm 13.6 8.5 9.3 75 2.2 WSW 26 43 14 23 1016.0 - 0.0
19/12:46pm 12.6 4.5 8.5 76 2.0 SW 41 61 22 33 1015.8 - 0.0
19/12:35pm 13.4 1.9 8.5 72 2.5 SW 59 63 32 34 1015.1 - 0.0
19/12:33pm 13.9 6.1 8.3 69 2.8 WSW 39 61 21 33 1015.2 - 0.0
19/12:30pm 14.2 6.7 7.9 66 3.1 WSW 37 44 20 24 1015.6 - 0.0
19/12:00pm 14.6 7.2 6.9 60 3.8 WSW 35 46 19 25 1015.5 1015.4 0.0
19/11:30am 14.5 8.0 8.0 65 3.3 SW 32 50 17 27 1015.0 - 0.0
19/11:27am 14.0 7.5 8.0 67 3.0 SW 32 50 17 27 1015.0 - 0.0
19/11:00am 14.6 7.1 8.1 65 3.3 SW 37 46 20 25 1014.7 - 0.0
19/10:30am 14.6 8.4 7.9 64 3.4 SSW 30 48 16 26 1014.6 - 0.0
19/10:11am 14.0 7.8 8.0 67 3.0 SW 30 48 16 26 1014.5 - 0.0
19/10:00am 14.6 8.1 8.1 65 3.3 SW 32 46 17 25 1014.3 - 0.0
19/09:39am 14.2 7.1 8.2 67 3.0 SW 35 54 19 29 1014.0 - 0.0
19/09:30am 14.4 6.5 7.7 64 3.3 SW 39 54 21 29 1014.0 - 0.0
19/09:00am 14.1 4.2 6.5 60 3.7 SW 48 59 26 32 1013.5 1013.4 3.0
19/08:55am 14.3 5.8 8.5 68 2.9 SW 43 61 23 33 1013.6 - 3.0
19/08:30am 14.3 4.5 8.7 69 2.8 SW 50 59 27 32 1013.4 - 3.0
19/08:00am 14.1 3.4 8.1 67 3.0 SW 54 63 29 34 1012.8 - 3.0
19/07:30am 13.6 3.7 8.2 70 2.7 WSW 50 59 27 32 1012.5 - 3.0
19/07:17am 13.0 6.0 8.5 74 2.3 SW 35 57 19 31 1012.4 - 3.0
19/07:14am 13.1 6.5 8.6 74 2.3 SW 33 57 18 31 1012.3 - 3.0
19/07:00am 13.4 2.1 7.2 66 3.0 WSW 56 63 30 34 1012.0 - 3.0
19/06:30am 13.2 3.8 8.9 75 2.2 WSW 48 61 26 33 1011.7 - 3.0
19/06:10am 13.2 6.9 8.9 75 2.2 WSW 32 52 17 28 1011.8 - 3.0
19/06:00am 13.0 7.1 9.1 77 2.0 W 30 44 16 24 1011.8 1011.7 3.0
19/05:34am 12.0 6.0 8.7 80 1.6 W 30 50 16 27 1011.9 - 3.0
19/05:30am 11.8 5.1 8.3 79 1.7 W 33 67 18 36 1011.7 - 3.0
19/05:27am 11.7 4.2 8.0 78 1.8 W 37 78 20 42 1011.6 - 2.8
19/05:23am 11.5 -0.3 7.6 77 1.9 WSW 59 78 32 42 1011.3 - 2.6
19/05:00am 13.3 1.1 8.8 74 2.3 SW 63 72 34 39 1010.6 - 1.8
19/04:51am 13.6 3.1 8.9 73 2.4 WSW 54 72 29 39 1010.3 - 1.8
19/04:30am 13.8 2.8 6.7 62 3.4 WSW 54 67 29 36 1010.2 - 1.8
19/04:00am 13.7 4.2 8.5 71 2.6 WSW 48 61 26 33 1010.3 - 1.8
19/03:36am 13.4 5.4 7.6 68 2.9 W 39 65 21 35 1010.3 - 1.8
19/03:30am 13.4 1.0 6.7 64 3.2 WSW 61 70 33 38 1010.0 - 1.8
19/03:00am 13.9 3.8 7.4 65 3.2 WSW 50 63 27 34 1009.9 1009.8 1.8
19/02:30am 13.9 3.9 7.7 66 3.1 WSW 50 63 27 34 1010.0 - 1.8
19/02:00am 13.9 5.3 8.1 68 2.9 W 43 61 23 33 1009.9 - 1.8
19/01:30am 14.1 5.1 8.9 71 2.6 W 46 67 25 36 1009.9 - 1.8
19/01:00am 14.3 5.7 8.9 70 2.8 W 44 63 24 34 1009.8 - 1.8
19/12:31am 14.3 4.9 8.9 70 2.8 WSW 48 67 26 36 1009.8 - 1.8
19/12:30am 14.3 4.6 8.9 70 2.8 WSW 50 67 27 36 1009.8 - 1.8
19/12:07am 14.4 4.2 8.6 68 2.9 WSW 52 70 28 38 1009.6 - 1.8
19/12:00am 14.4 4.2 8.6 68 2.9 WSW 52 65 28 35 1009.5 1009.4 1.8
 
Date/Time
EDT
Temp
°C
App
Temp
°C
Dew
Point
Rel
Hum
%
Delta-T
°C
Wind Press
QNH
hPa
Press
MSL
hPa
Rain
since 9 am
mm
Dir
 
Spd
km/h
Gust
km/h
Spd
kts
Gust
kts
18/11:33pm 14.5 4.5 9.3 71 2.7 WSW 52 70 28 38 1009.3 - 1.8
18/11:30pm 14.7 5.3 10.1 74 2.4 WSW 50 63 27 34 1009.7 - 1.8
18/11:16pm 14.5 2.5 9.7 73 2.5 WSW 63 70 34 38 1009.2 - 1.8
18/11:03pm 14.5 7.1 9.9 74 2.4 W 39 57 21 31 1009.9 - 1.8
18/11:00pm 14.5 6.7 9.7 73 2.5 W 41 57 22 31 1009.7 - 1.8
18/10:48pm 14.4 4.4 9.4 72 2.6 WSW 52 70 28 38 1009.4 - 1.8
18/10:31pm 14.5 3.0 10.1 75 2.3 WSW 61 67 33 36 1009.1 - 1.8
18/10:30pm 14.6 7.3 10.2 75 2.3 W 39 65 21 35 1009.1 - 1.8
18/10:24pm 14.7 7.7 9.9 73 2.5 W 37 56 20 30 1009.6 - 1.8
18/10:00pm 14.7 7.6 9.5 71 2.7 W 37 54 20 29 1009.2 - 1.8
18/09:30pm 14.4 7.4 9.8 74 2.4 W 37 56 20 30 1009.0 - 1.8
18/09:03pm 14.0 7.8 10.0 77 2.1 W 33 52 18 28 1009.0 - 1.8
18/09:00pm 14.1 7.5 10.1 77 2.1 W 35 52 19 28 1008.9 1008.8 1.8
18/08:41pm 14.1 6.7 9.7 75 2.3 W 39 57 21 31 1008.7 - 1.8
18/08:30pm 14.0 5.7 10.0 77 2.1 W 44 61 24 33 1008.4 - 1.8
18/08:09pm 14.0 7.2 10.6 80 1.8 W 37 72 20 39 1007.6 - 1.8
18/08:04pm 14.7 8.9 11.5 81 1.7 W 33 52 18 28 1008.0 - 1.8
18/08:00pm 14.6 8.0 11.2 80 1.8 W 37 54 20 29 1008.0 - 1.8
18/07:32pm 14.7 9.1 11.5 81 1.7 W 32 57 17 31 1007.8 - 1.8
18/07:30pm 14.7 9.1 11.5 81 1.7 W 32 46 17 25 1007.9 - 1.8
18/07:15pm 14.2 8.9 11.4 83 1.5 W 30 48 16 26 1007.5 - 1.8
18/07:00pm 13.8 7.9 11.3 85 1.3 W 33 48 18 26 1007.2 - 1.8
18/06:30pm 13.3 6.3 11.4 88 1.0 W 39 57 21 31 1007.1 - 1.6
18/06:01pm 13.6 5.7 10.9 84 1.4 W 43 67 23 36 1006.7 - 0.6
18/06:00pm 13.6 5.7 10.9 84 1.4 W 43 59 23 32 1006.9 1006.7 0.4
18/05:35pm 14.5 6.9 10.5 77 2.1 W 41 69 22 37 1006.2 - 0.0
18/05:30pm 14.9 7.0 10.9 77 2.1 W 43 57 23 31 1006.4 - 0.0
18/05:11pm 15.8 7.8 10.6 71 2.8 W 43 61 23 33 1006.0 - 0.0
18/05:00pm 16.0 9.5 10.5 70 2.9 W 35 50 19 27 1006.2 - 0.0
18/04:30pm 16.2 8.6 10.5 69 3.0 W 41 52 22 28 1005.2 - 0.0
18/04:17pm 16.3 5.9 10.6 69 3.0 WSW 56 74 30 40 1004.6 - 0.0
18/04:14pm 16.0 4.4 9.9 67 3.2 WSW 61 74 33 40 1004.3 - 0.0
18/04:13pm 16.3 8.1 9.7 65 3.5 W 43 70 23 38 1004.5 - 0.0
18/04:00pm 17.9 11.4 10.5 62 4.0 W 35 52 19 28 1005.1 - 0.0
18/03:31pm 18.0 12.5 10.6 62 4.0 W 30 48 16 26 1004.6 - 0.0
18/03:30pm 18.1 12.5 10.2 60 4.2 W 30 44 16 24 1004.6 - 0.0
18/03:10pm 18.4 12.5 11.2 63 3.9 W 33 52 18 28 1004.8 - 0.0
18/03:00pm 18.3 11.4 10.4 60 4.3 W 37 52 20 28 1004.5 1004.4 0.0
18/02:30pm 18.1 12.6 11.9 67 3.4 W 32 50 17 27 1004.7 - 0.0
18/02:00pm 16.8 9.5 11.5 71 2.9 W 41 59 22 32 1004.5 - 0.0
18/01:30pm 17.2 9.5 11.5 69 3.1 W 43 63 23 34 1004.2 - 0.0
18/01:00pm 17.7 10.4 11.5 67 3.4 W 41 61 22 33 1004.3 - 0.0
18/12:30pm 17.5 9.9 11.8 69 3.1 W 43 61 23 33 1004.4 - 0.0
18/12:00pm 18.4 12.2 10.0 58 4.5 W 33 65 18 35 1004.0 1003.9 0.0
18/11:47am 18.0 11.0 10.1 60 4.2 W 37 56 20 30 1004.1 - 0.0
18/11:39am 18.6 11.2 9.7 56 4.7 W 39 56 21 30 1003.8 - 0.0
18/11:30am 19.5 15.9 9.7 53 5.2 W 19 35 10 19 1003.9 - 0.0
18/11:00am 19.8 16.3 8.8 49 5.8 NW 17 39 9 21 1004.0 - 0.0
18/10:30am 19.1 17.2 10.6 58 4.6 WSW 11 24 6 13 1004.3 - 0.0
18/10:00am 19.0 17.1 11.8 63 4.0 NNW 13 20 7 11 1004.4 - 0.0
18/09:30am 18.5 15.5 12.5 68 3.4 NNE 20 30 11 16 1004.4 - 0.0
18/09:00am 17.8 12.8 12.3 70 3.1 NNE 30 41 16 22 1004.3 1004.2 0.0
18/08:30am 17.7 13.6 12.6 72 2.8 NNE 26 39 14 21 1004.3 - 0.0
18/08:00am 17.1 11.6 12.6 75 2.5 NNE 33 41 18 22 1004.5 - 0.0
18/07:30am 15.7 11.3 11.7 77 2.2 NNE 26 39 14 21 1004.9 - 0.0
18/07:00am 15.8 11.0 11.8 77 2.2 NNE 28 37 15 20 1004.7 - 0.0
18/06:30am 15.3 10.8 11.3 77 2.2 NNE 26 39 14 21 1004.9 - 0.0
18/06:00am 14.4 9.6 10.4 77 2.1 NNE 26 37 14 20 1005.0 1004.9 0.0
18/05:30am 14.1 10.0 10.1 77 2.1 NNE 22 35 12 19 1005.3 - 0.0
18/05:00am 14.1 9.6 9.9 76 2.2 NNE 24 35 13 19 1005.3 - 0.0
18/04:30am 13.9 8.9 9.7 76 2.2 NNE 26 35 14 19 1005.2 - 0.0
18/04:00am 14.0 9.0 9.4 74 2.4 NNE 26 35 14 19 1005.6 - 0.0
18/03:30am 14.0 9.3 9.4 74 2.4 NNE 24 41 13 22 1005.7 - 0.0
18/03:00am 13.7 9.0 9.4 75 2.2 NNE 24 35 13 19 1005.8 1005.6 0.0
18/02:30am 13.6 8.5 9.3 75 2.2 NNE 26 37 14 20 1006.0 - 0.0
18/02:00am 13.5 9.5 8.4 71 2.6 NNE 19 26 10 14 1006.7 - 0.0
18/01:30am 13.5 9.7 7.5 67 3.0 NNE 17 20 9 11 1007.0 - 0.0
18/01:00am 13.5 9.0 6.8 64 3.2 N 20 24 11 13 1007.4 - 0.0
18/12:30am 13.0 8.6 6.4 64 3.2 NNE 19 24 10 13 1007.7 - 0.0
18/12:00am 13.1 9.4 6.2 63 3.3 NNE 15 20 8 11 1007.9 1007.8 0.0
 
Date/Time
EDT
Temp
°C
App
Temp
°C
Dew
Point
Rel
Hum
%
Delta-T
°C
Wind Press
QNH
hPa
Press
MSL
hPa
Rain
since 9 am
mm
Dir
 
Spd
km/h
Gust
km/h
Spd
kts
Gust
kts
17/11:30pm 12.9 9.1 6.0 63 3.3 NNE 15 20 8 11 1008.2 - 0.0
17/11:00pm 13.2 11.9 6.1 62 3.4 WNW 2 9 1 5 1008.6 - 0.0
17/10:30pm 13.3 12.1 6.6 64 3.2 WNW 2 7 1 4 1008.9 - 0.0
17/10:00pm 13.3 12.2 6.9 65 3.1 WNW 2 7 1 4 1008.9 - 0.0
17/09:30pm 13.7 11.0 7.2 65 3.2 W 11 13 6 7 1008.8 - 0.0
17/09:00pm 13.8 11.0 6.9 63 3.4 W 11 13 6 7 1008.8 1008.7 0.0
17/08:30pm 14.6 10.6 6.7 59 3.9 WSW 17 22 9 12 1008.8 - 0.0
17/08:00pm 14.9 9.5 6.5 57 4.1 WSW 24 30 13 16 1008.6 - 0.0
17/07:30pm 15.6 10.1 7.4 58 4.1 WSW 26 33 14 18 1008.3 - 0.0
17/07:00pm 15.9 10.3 7.1 56 4.4 W 26 33 14 18 1008.2 - 0.0
17/06:30pm 16.4 10.9 6.0 50 5.1 W 24 35 13 19 1007.9 - 0.0
17/06:00pm 16.5 11.0 7.7 56 4.5 W 26 32 14 17 1007.8 1007.7 0.0
17/05:30pm 15.5 9.3 7.8 60 3.9 WSW 30 39 16 21 1007.8 - 0.0
17/05:00pm 15.7 9.2 8.0 60 3.9 WSW 32 43 17 23 1007.7 - 0.0
17/04:30pm 16.8 9.7 8.2 57 4.4 W 35 44 19 24 1008.1 - 0.0
17/04:00pm 16.9 9.9 8.6 58 4.3 W 35 50 19 27 1008.2 - 0.0
17/03:30pm 16.7 9.2 7.9 56 4.5 W 37 48 20 26 1008.2 - 0.0
17/03:00pm 16.2 10.0 7.9 58 4.2 W 30 46 16 25 1008.2 1008.1 0.0
17/02:30pm 16.6 9.8 7.8 56 4.5 W 33 41 18 22 1008.3 - 0.0
17/02:00pm 16.7 9.4 7.1 53 4.8 W 35 44 19 24 1008.2 - 0.0
17/01:30pm 16.6 9.6 8.3 58 4.2 W 35 46 19 25 1008.3 - 0.0
17/01:00pm 16.7 9.2 8.1 57 4.4 W 37 46 20 25 1008.1 - 0.0
17/12:30pm 16.8 10.6 8.0 56 4.5 W 30 41 16 22 1008.2 - 0.0
17/12:00pm 15.7 10.1 7.2 57 4.2 W 26 39 14 21 1008.2 1008.1 0.0
17/11:30am 15.3 9.3 7.1 58 4.1 W 28 41 15 22 1007.9 - 0.0
17/11:00am 15.5 8.5 8.3 62 3.7 W 35 46 19 25 1007.7 - 0.0
17/10:30am 13.8 4.9 7.8 67 3.0 WSW 44 56 24 30 1007.1 - 0.0
17/10:00am 14.2 4.4 8.8 70 2.7 WSW 50 57 27 31 1006.8 - 0.0
17/09:40am 14.2 8.1 8.2 67 3.0 W 30 50 16 27 1006.8 - 0.0
17/09:30am 14.6 7.9 8.1 65 3.3 W 33 46 18 25 1006.8 - 0.0
17/09:25am 14.1 7.6 8.1 67 3.0 W 32 46 17 25 1006.7 - 0.0
17/09:00am 13.5 3.6 8.1 70 2.7 WSW 50 57 27 31 1006.3 1006.1 3.8
17/08:30am 14.0 5.4 6.4 60 3.7 WSW 41 56 22 30 1006.0 - 3.8
17/08:22am 14.4 6.7 7.2 62 3.5 WSW 37 56 20 30 1006.1 - 3.8
17/08:00am 14.1 4.4 7.6 65 3.2 WSW 48 63 26 34 1005.5 - 3.8
17/07:34am 13.7 4.4 7.7 67 3.0 WSW 46 65 25 35 1005.1 - 3.8
17/07:30am 13.9 4.0 8.1 68 2.9 WSW 50 65 27 35 1005.0 - 3.8
17/07:25am 13.7 1.9 7.5 66 3.1 WSW 59 65 32 35 1004.5 - 3.8
17/07:00am 13.8 6.1 7.3 65 3.2 W 37 57 20 31 1004.5 - 3.8
17/06:40am 13.8 5.4 7.3 65 3.2 W 41 59 22 32 1004.2 - 3.8
17/06:30am 13.3 4.5 7.3 67 2.9 W 43 57 23 31 1003.8 - 3.8
17/06:02am 13.4 5.3 7.2 66 3.0 W 39 57 21 31 1003.6 - 3.8
17/06:00am 13.3 4.8 7.1 66 3.0 W 41 57 22 31 1003.5 1003.4 3.8
17/05:30am 13.2 3.7 6.5 64 3.2 W 46 65 25 35 1002.8 - 3.8
17/05:00am 13.1 3.7 7.1 67 2.9 W 46 65 25 35 1002.6 - 3.8
17/04:38am 13.2 4.5 8.3 72 2.4 W 44 63 24 34 1002.2 - 3.8
17/04:30am 12.7 1.8 7.4 70 2.6 W 54 70 29 38 1002.4 - 3.8
17/04:12am 13.6 4.7 7.6 67 3.0 W 44 63 24 34 1002.2 - 3.8
17/04:00am 13.5 4.1 7.1 65 3.1 W 46 61 25 33 1002.0 - 3.8
17/03:36am 13.6 3.4 6.9 64 3.3 W 50 69 27 37 1001.7 - 3.8
17/03:30am 13.5 2.8 6.6 63 3.3 W 52 69 28 37 1001.8 - 3.8
17/03:00am 13.7 3.2 7.2 65 3.2 W 52 72 28 39 1001.3 1001.2 3.8
17/02:30am 13.8 3.2 6.7 62 3.4 W 52 70 28 38 1000.9 - 3.8
17/02:00am 13.8 3.8 7.8 67 3.0 W 50 70 27 38 1000.9 - 3.8
17/01:30am 13.8 1.2 7.1 64 3.3 W 63 91 34 49 999.8 - 3.8
17/01:21am 14.2 1.7 7.5 64 3.3 WSW 63 91 34 49 999.6 - 3.8
17/01:00am 13.9 3.2 7.9 67 3.0 W 54 72 29 39 1000.5 - 3.6
17/12:30am 13.9 4.4 8.3 69 2.8 W 48 70 26 38 1000.6 - 3.6
17/12:00am 13.7 2.7 8.5 71 2.6 W 56 76 30 41 1000.5 1000.4 3.6

Other Formats:

Comma delimited format used in spreadsheet applications
http://www.bom.gov.au/fwo/IDV60801/IDV60801.94893.axf

JavaScript Object Notation format (JSON) in row-major order
http://www.bom.gov.au/fwo/IDV60801/IDV60801.94893.json